METAR Data
IDs: Format: Raw Decoded Include TAF

Data at: 1840 UTC 16 Oct 2021

KDFW 161753Z 02009KT 340V040 10SM FEW250 22/00 A3038 RMK AO2 SLP281 T02170000 10217 20106 58001
KDFW 161653Z 01006KT 10SM FEW250 20/02 A3039 RMK AO2 SLP285 T02000017
KDFW 161553Z 35006KT 10SM FEW250 18/06 A3039 RMK AO2 SLP286 T01780056
KDFW 161453Z 35007KT 10SM FEW250 16/07 A3038 RMK AO2 SLP283 T01610072 53020
KDFW 161353Z 35006KT 10SM CLR 14/08 A3036 RMK AO2 SLP276 T01390083
KDFW 161253Z 32008KT 10SM CLR 11/07 A3033 RMK AO2 SLP266 T01110067
KDFW 161153Z 32007KT 10SM CLR 11/07 A3032 RMK AO2 SLP263 T01060067 10144 20106 53009
KDFW 161053Z 34007KT 10SM CLR 12/07 A3030 RMK AO2 SLP255 T01170067
KDFW 160953Z 33007KT 10SM CLR 12/07 A3029 RMK AO2 SLP253 T01220067
KDFW 160853Z 33007KT 10SM CLR 12/07 A3029 RMK AO2 SLP252 T01220072 51010
KDFW 160753Z 32008KT 10SM CLR 13/07 A3029 RMK AO2 SLP252 T01330072
KDFW 160653Z 32008KT 10SM CLR 13/07 A3028 RMK AO2 SLP249 T01330072
KDFW 160553Z 33007KT 10SM CLR 14/07 A3026 RMK AO2 SLP242 T01440067 10206 20139 402440139 51020
KDFW 160453Z 34006KT 10SM CLR 15/06 A3025 RMK AO2 SLP238 T01500061
KDFW 160353Z 35009KT 10SM CLR 16/06 A3023 RMK AO2 SLP231 T01560056
KDFW 160253Z 34008KT 10SM CLR 17/06 A3020 RMK AO2 SLP220 T01670061 51029
KDFW 160153Z 34009KT 10SM CLR 18/07 A3018 RMK AO2 SLP213 T01780067
KDFW 160053Z 34013KT 10SM CLR 19/07 A3015 RMK AO2 SLP202 T01940067
KDFW 152353Z 35014G24KT 10SM FEW040 21/06 A3011 RMK AO2 PK WND 34028/2316 SLP191 T02060061 10244 20206 53023
KDFW 152253Z 35014G23KT 10SM FEW040 23/08 A3009 RMK AO2 PK WND 33027/2219 SLP181 T02280078
KDFW 152153Z 35018G27KT 10SM FEW040 24/09 A3006 RMK AO2 PK WND 35027/2057 SLP172 T02390089
KDFW 152053Z 33017G25KT 10SM FEW035 24/11 A3005 RMK AO2 PK WND 35030/2018 SLP166 T02440111 53008
KDFW 151953Z 32019KT 10SM FEW034 23/12 A3003 RMK AO2 PK WND 33028/1907 SLP161 T02330122
KDFW 151928Z 33018G24KT 10SM BKN031 23/13 A3002 RMK AO2 PK WND 33028/1907 T02330128
KDFW 151853Z 32018G24KT 10SM BKN026 23/14 A3002 RMK AO2 PK WND 32026/1810 SLP160 T02280144
KDFW 151753Z 32018KT 10SM BKN016 BKN034 22/17 A3002 RMK AO2 SLP159 T02170167 10239 20211 51029
KDFW 151722Z 32018G25KT 10SM BKN016 BKN034 22/17 A3001 RMK AO2 T02170167
KDFW 151653Z 33017KT 10SM FEW015 OVC031 22/17 A3000 RMK AO2 PK WND 32028/1629 SLP152 T02170172
KDFW 151553Z 30013G21KT 10SM SCT016 OVC025 23/18 A2997 RMK AO2 SLP140 T02280183
KDFW 151453Z 30011KT 10SM BKN015 OVC022 23/20 A2993 RMK AO2 SLP128 T02330200 53031
KDFW 151353Z 23010KT 10SM FEW011 BKN022 23/21 A2990 RMK AO2 SLP117 T02280206 $
KDFW 151328Z 23007KT 10SM FEW007 BKN014 BKN022 22/21 A2989 RMK AO2 T02220206 $
KDFW 151253Z 22008KT 10SM FEW007 SCT010 22/20 A2987 RMK AO2 SLP106 T02170200 $
KDFW 151153Z 19010KT 10SM FEW010 22/21 A2984 RMK AO2 SLP096 T02170206 10228 20211 51006 $
KDFW 151053Z 19007KT 10SM FEW010 22/20 A2984 RMK AO2 SLP094 T02170200 $
KDFW 150953Z 20006KT 10SM CLR 21/20 A2983 RMK AO2 SLP093 T02110200
KDFW 150853Z 19009KT 10SM CLR 22/21 A2982 RMK AO2 SLP089 T02220206 56000
KDFW 150753Z 18006KT 10SM CLR 22/21 A2982 RMK AO2 SLP090 T02170206
KDFW 150653Z 18006KT 10SM CLR 22/20 A2982 RMK AO2 SLP090 T02170200